Time;durP1;ratioP1;P1;durP2;ratioP2;P2;SDS_P1;SDS_P2;PMS_P1;PMS_P2;Temp;Humidity;BMP_temperature;BMP_pressure;BME280_temperature;BME280_humidity;BME280_pressure;Samples;Min_cycle;Max_cycle;Signal;HPM_P1;HPM_P2
2022/09/27 00:01:21;;;;;;;20.25;2.60;;;12.00;99.90;;;;;;5055073;28;20548;-45
2022/09/27 00:03:47;;;;;;;19.40;2.30;;;12.10;99.90;;;;;;5032981;28;20281;-46
2022/09/27 00:06:39;;;;;;;15.13;2.05;;;12.00;99.90;;;;;;5035359;28;20183;-48
2022/09/27 00:09:05;;;;;;;11.55;2.05;;;12.10;99.90;;;;;;5032768;28;20767;-44
2022/09/27 00:11:35;;;;;;;7.07;1.60;;;12.00;99.90;;;;;;5035990;28;20271;-46
2022/09/27 00:14:02;;;;;;;11.95;2.08;;;12.10;99.90;;;;;;5020722;28;20851;-51
2022/09/27 00:16:35;;;;;;;14.38;2.35;;;12.10;99.90;;;;;;5031324;28;20611;-50
2022/09/27 00:19:05;;;;;;;15.23;2.03;;;12.10;99.90;;;;;;5033658;28;20207;-51
2022/09/27 00:21:31;;;;;;;17.88;2.72;;;12.10;99.90;;;;;;5035692;28;20172;-50
2022/09/27 00:23:58;;;;;;;16.13;1.88;;;12.10;99.90;;;;;;5032849;28;20184;-49
2022/09/27 00:26:24;;;;;;;9.88;1.85;;;12.00;99.90;;;;;;5035240;28;20230;-50
2022/09/27 00:28:50;;;;;;;10.13;1.77;;;12.00;99.90;;;;;;5033987;28;20222;-54
2022/09/27 00:31:24;;;;;;;10.27;1.88;;;12.00;99.90;;;;;;5034221;28;20185;-50
2022/09/27 00:33:52;;;;;;;16.83;1.90;;;12.00;99.90;;;;;;5033800;28;20203;-47
2022/09/27 00:36:19;;;;;;;10.27;1.90;;;11.90;99.90;;;;;;5034818;28;20273;-50
2022/09/27 00:38:45;;;;;;;9.32;2.05;;;12.00;99.90;;;;;;5032901;28;20195;-49
2022/09/27 00:41:15;;;;;;;17.45;1.90;;;11.90;99.90;;;;;;5034358;28;20180;-44
2022/09/27 00:43:45;;;;;;;14.68;1.88;;;11.90;99.90;;;;;;5035087;28;20538;-46
2022/09/27 00:46:13;;;;;;;16.17;1.73;;;11.90;99.90;;;;;;5015828;28;20172;-49
2022/09/27 00:48:38;;;;;;;10.50;1.90;;;11.90;99.90;;;;;;5023250;28;20208;-48
2022/09/27 00:51:06;;;;;;;11.45;2.15;;;11.90;99.90;;;;;;5016567;28;20193;-47
2022/09/27 00:53:54;;;;;;;13.20;1.70;;;11.90;99.90;;;;;;5039096;28;20545;-47
2022/09/27 00:56:26;;;;;;;15.80;2.00;;;11.90;99.90;;;;;;5033624;28;20168;-50
2022/09/27 00:58:58;;;;;;;13.63;2.10;;;11.90;99.90;;;;;;5041723;28;20168;-47
2022/09/27 01:01:24;;;;;;;10.23;1.60;;;11.90;99.90;;;;;;5026134;28;20207;-48
2022/09/27 01:04:10;;;;;;;9.43;1.50;;;11.90;99.90;;;;;;5015841;28;20683;-46
2022/09/27 01:06:37;;;;;;;15.40;1.60;;;11.90;99.90;;;;;;5049756;28;20183;-48
2022/09/27 01:09:07;;;;;;;11.50;1.50;;;11.80;99.90;;;;;;5033548;28;20619;-48
2022/09/27 01:11:49;;;;;;;13.18;1.65;;;11.80;99.90;;;;;;5033033;28;20183;-48
2022/09/27 01:14:42;;;;;;;15.57;1.73;;;11.80;99.90;;;;;;5033252;28;20255;-50
2022/09/27 01:17:27;;;;;;;13.75;2.05;;;11.80;99.90;;;;;;5035275;28;20514;-47
2022/09/27 01:20:25;;;;;;;11.55;1.70;;;11.80;99.90;;;;;;5013541;28;20187;-46
2022/09/27 01:23:24;;;;;;;14.60;1.80;;;11.80;99.90;;;;;;4981963;28;20255;-46
2022/09/27 01:26:29;;;;;;;9.07;1.55;;;11.90;99.90;;;;;;5033344;28;20176;-47
2022/09/27 01:29:04;;;;;;;12.68;1.70;;;11.80;99.90;;;;;;5031884;28;20210;-48
2022/09/27 01:31:45;;;;;;;14.57;2.05;;;11.80;99.90;;;;;;5032424;28;20215;-48
2022/09/27 01:34:13;;;;;;;15.43;1.85;;;11.70;99.90;;;;;;5019505;28;20259;-50
2022/09/27 01:36:49;;;;;;;10.15;1.67;;;11.60;99.90;;;;;;5032660;28;20176;-51
2022/09/27 01:39:36;;;;;;;16.98;1.65;;;11.60;99.90;;;;;;5016425;28;20180;-50
2022/09/27 01:42:56;;;;;;;17.10;1.60;;;11.50;99.90;;;;;;5032816;28;20188;-52
2022/09/27 01:45:39;;;;;;;16.77;2.10;;;11.50;99.90;;;;;;5058098;28;20183;-48
2022/09/27 01:48:20;;;;;;;8.93;1.60;;;11.50;99.90;;;;;;5045290;28;20183;-50
2022/09/27 01:51:17;;;;;;;12.30;1.60;;;11.40;99.90;;;;;;5032533;28;20168;-51
2022/09/27 01:53:49;;;;;;;13.02;1.48;;;11.40;99.90;;;;;;5043839;28;20188;-48
2022/09/27 01:56:51;;;;;;;17.00;1.48;;;11.40;99.90;;;;;;5018276;28;20246;-49
2022/09/27 01:59:45;;;;;;;11.70;1.50;;;11.30;99.90;;;;;;5032658;28;20203;-50
2022/09/27 02:02:35;;;;;;;12.75;1.58;;;11.30;99.90;;;;;;5043443;28;20349;-46
2022/09/27 02:05:28;;;;;;;11.75;1.70;;;11.30;99.90;;;;;;5029440;28;20310;-48
2022/09/27 02:08:01;;;;;;;12.70;1.20;;;11.30;99.90;;;;;;5032587;28;20206;-47
2022/09/27 02:10:36;;;;;;;14.13;1.70;;;11.30;99.90;;;;;;5032228;28;20199;-49
2022/09/27 02:13:20;;;;;;;12.48;1.65;;;11.30;99.90;;;;;;5030717;28;20187;-48
2022/09/27 02:16:26;;;;;;;8.85;1.50;;;11.30;99.90;;;;;;5032022;28;20793;-50
2022/09/27 02:18:55;;;;;;;17.55;2.55;;;11.30;99.90;;;;;;4990014;28;20197;-47
2022/09/27 02:21:28;;;;;;;8.05;1.27;;;11.40;99.90;;;;;;5032381;28;20172;-51
2022/09/27 02:24:00;;;;;;;14.63;1.50;;;11.40;99.90;;;;;;5030688;28;20274;-50
2022/09/27 02:26:33;;;;;;;9.35;1.60;;;11.40;99.90;;;;;;5005207;28;20184;-47
2022/09/27 02:29:07;;;;;;;15.32;2.03;;;11.50;99.90;;;;;;5030988;28;20225;-51
2022/09/27 02:31:41;;;;;;;11.35;1.50;;;11.60;99.90;;;;;;5031712;28;20176;-48
2022/09/27 02:34:18;;;;;;;10.23;1.30;;;11.60;99.90;;;;;;5011998;28;20194;-48
2022/09/27 02:36:44;;;;;;;20.27;1.77;;;11.60;99.90;;;;;;5043225;28;20180;-46
2022/09/27 02:39:10;;;;;;;16.35;1.90;;;11.70;99.90;;;;;;5026044;28;20196;-46
2022/09/27 02:41:36;;;;;;;11.18;1.38;;;11.70;99.90;;;;;;5029025;28;20189;-46
2022/09/27 02:44:06;;;;;;;11.27;1.65;;;11.70;99.90;;;;;;5029815;28;20213;-53
2022/09/27 02:46:53;;;;;;;9.38;1.67;;;11.80;99.90;;;;;;5040468;28;20180;-46
2022/09/27 02:49:50;;;;;;;14.18;1.50;;;11.80;99.90;;;;;;5019927;28;20216;-49
2022/09/27 02:52:37;;;;;;;10.95;1.42;;;11.70;99.90;;;;;;5029895;28;20186;-48
2022/09/27 02:55:22;;;;;;;8.80;1.40;;;11.70;99.90;;;;;;5031869;28;20565;-46
2022/09/27 02:58:34;;;;;;;11.23;1.30;;;11.70;99.90;;;;;;5031176;28;20176;-55
2022/09/27 03:01:54;;;;;;;8.18;1.10;;;11.70;99.90;;;;;;5039484;28;20167;-49
2022/09/27 03:04:35;;;;;;;6.03;0.82;;;11.70;99.90;;;;;;5031589;28;20341;-46
2022/09/27 03:07:02;;;;;;;5.72;1.05;;;11.70;99.90;;;;;;5033313;28;20259;-53
2022/09/27 03:09:39;;;;;;;7.43;1.10;;;11.70;99.90;;;;;;5030736;28;20570;-47
2022/09/27 03:12:05;;;;;;;12.57;1.50;;;11.70;99.90;;;;;;5031682;28;20179;-46
2022/09/27 03:14:31;;;;;;;11.90;1.42;;;11.70;99.90;;;;;;5031277;28;20184;-49
2022/09/27 03:17:05;;;;;;;7.65;1.30;;;11.70;99.90;;;;;;5031614;28;20187;-46
2022/09/27 03:19:50;;;;;;;12.25;1.58;;;11.70;99.90;;;;;;5031900;28;20237;-46
2022/09/27 03:22:34;;;;;;;8.65;1.58;;;11.70;99.90;;;;;;5030926;28;20176;-46
2022/09/27 03:25:00;;;;;;;7.13;1.30;;;11.70;99.90;;;;;;5015314;28;20191;-48
2022/09/27 03:27:26;;;;;;;8.48;1.52;;;11.70;99.90;;;;;;5016189;28;20196;-48
2022/09/27 03:29:52;;;;;;;14.27;1.88;;;11.70;99.90;;;;;;5034453;28;20301;-48
2022/09/27 03:32:17;;;;;;;10.57;1.10;;;11.60;99.90;;;;;;5036678;28;20192;-49
2022/09/27 03:34:55;;;;;;;5.28;1.10;;;11.60;99.90;;;;;;5034851;28;20190;-49
2022/09/27 03:37:22;;;;;;;7.47;1.02;;;11.50;99.90;;;;;;5035222;28;20180;-48
2022/09/27 03:39:48;;;;;;;4.13;0.90;;;11.40;99.90;;;;;;5030033;28;20191;-44
2022/09/27 03:42:14;;;;;;;7.32;1.20;;;11.40;99.90;;;;;;5034577;28;20184;-46
2022/09/27 03:44:45;;;;;;;14.68;1.73;;;11.40;99.90;;;;;;5044142;28;20639;-44
2022/09/27 03:47:11;;;;;;;5.28;1.20;;;11.30;99.90;;;;;;5053948;28;20218;-48
2022/09/27 03:49:37;;;;;;;7.13;0.90;;;11.30;99.90;;;;;;5033704;28;20230;-44
2022/09/27 03:52:04;;;;;;;8.15;1.30;;;11.30;99.90;;;;;;5034906;28;20191;-49
2022/09/27 03:54:29;;;;;;;14.23;1.42;;;11.20;99.90;;;;;;5035898;28;20188;-47
2022/09/27 03:56:55;;;;;;;9.00;1.30;;;11.20;99.90;;;;;;5034409;28;20659;-44
2022/09/27 03:59:21;;;;;;;6.38;1.00;;;11.20;99.90;;;;;;5033198;28;20284;-43
2022/09/27 04:02:19;;;;;;;6.97;1.00;;;11.20;99.90;;;;;;5018235;28;20234;-43
2022/09/27 04:05:04;;;;;;;8.65;1.20;;;11.20;99.90;;;;;;5056002;28;20186;-46
2022/09/27 04:07:30;;;;;;;6.78;0.80;;;11.20;99.90;;;;;;5038062;28;20619;-46
2022/09/27 04:09:56;;;;;;;7.55;1.27;;;11.20;99.90;;;;;;5038214;28;20284;-52
2022/09/27 04:12:23;;;;;;;7.50;1.10;;;11.30;99.90;;;;;;5036389;28;20632;-46
2022/09/27 04:14:49;;;;;;;9.63;0.98;;;11.40;99.90;;;;;;5037738;28;20179;-46
2022/09/27 04:17:46;;;;;;;4.22;0.75;;;11.40;99.90;;;;;;5018114;28;20194;-45
2022/09/27 04:20:33;;;;;;;4.28;0.80;;;11.40;99.90;;;;;;4998302;28;20202;-46
2022/09/27 04:23:03;;;;;;;8.82;0.90;;;11.40;99.90;;;;;;5050269;28;21099;-48
2022/09/27 04:25:31;;;;;;;2.38;0.70;;;11.40;99.90;;;;;;5026077;28;20183;-44
2022/09/27 04:28:00;;;;;;;6.45;0.80;;;11.30;99.90;;;;;;5024177;28;20183;-46
2022/09/27 04:30:27;;;;;;;5.30;0.88;;;11.30;99.90;;;;;;5037552;28;20211;-46
2022/09/27 04:33:12;;;;;;;4.88;0.95;;;11.30;99.90;;;;;;5052772;28;20179;-45
2022/09/27 04:38:59;;;;;;;9.60;0.90;;;11.30;99.90;;;;;;5040415;28;20281;-48
2022/09/27 04:41:27;;;;;;;7.18;0.95;;;11.30;99.90;;;;;;5036636;28;20640;-51
2022/09/27 04:43:54;;;;;;;7.20;1.05;;;11.30;99.90;;;;;;5031014;28;20195;-51
2022/09/27 04:46:20;;;;;;;3.50;0.93;;;11.30;99.90;;;;;;5037396;28;20550;-46
2022/09/27 04:48:47;;;;;;;8.30;1.33;;;11.20;99.90;;;;;;5036131;28;20224;-51
2022/09/27 04:51:16;;;;;;;3.80;1.05;;;11.20;99.90;;;;;;5035928;28;20270;-44
2022/09/27 04:53:42;;;;;;;6.93;1.42;;;11.30;99.90;;;;;;5042406;28;20543;-50
2022/09/27 04:56:08;;;;;;;8.20;1.17;;;11.20;99.90;;;;;;5025791;28;20600;-47
2022/09/27 04:58:35;;;;;;;8.43;1.20;;;11.20;99.90;;;;;;5047713;28;20188;-46
2022/09/27 05:01:02;;;;;;;13.15;1.48;;;11.30;99.90;;;;;;5029486;28;20283;-43
2022/09/27 05:03:47;;;;;;;7.10;1.15;;;11.20;99.90;;;;;;5055626;28;20737;-48
2022/09/27 05:06:14;;;;;;;8.32;1.20;;;11.30;99.90;;;;;;5037134;28;20657;-45
2022/09/27 05:08:41;;;;;;;7.72;1.15;;;11.30;99.90;;;;;;5040387;28;20207;-44
2022/09/27 05:11:18;;;;;;;7.68;1.92;;;11.30;99.90;;;;;;5036473;28;20214;-51
2022/09/27 05:14:04;;;;;;;6.78;1.10;;;11.30;99.90;;;;;;5039234;28;20275;-45
2022/09/27 05:16:35;;;;;;;14.50;1.60;;;11.30;99.90;;;;;;5025927;28;20192;-48
2022/09/27 05:19:24;;;;;;;11.32;1.60;;;11.30;99.90;;;;;;5021218;28;20195;-45
2022/09/27 05:22:01;;;;;;;13.25;1.48;;;11.20;99.90;;;;;;5051458;28;20250;-47
2022/09/27 05:24:28;;;;;;;11.68;1.38;;;11.30;99.90;;;;;;5017883;28;20254;-47
2022/09/27 05:26:54;;;;;;;11.13;1.40;;;11.30;99.90;;;;;;5044214;28;20705;-48
2022/09/27 05:29:19;;;;;;;7.28;1.48;;;11.20;99.90;;;;;;5027725;28;20238;-47
2022/09/27 05:32:00;;;;;;;13.30;1.48;;;11.30;99.90;;;;;;5031354;28;20191;-43
2022/09/27 05:34:26;;;;;;;11.50;1.58;;;11.30;99.90;;;;;;5047547;28;20565;-43
2022/09/27 05:37:00;;;;;;;15.10;1.52;;;11.30;99.90;;;;;;5027966;28;20183;-42
2022/09/27 05:39:29;;;;;;;14.40;1.33;;;11.30;99.90;;;;;;5026854;28;20199;-44
2022/09/27 05:41:56;;;;;;;9.07;1.58;;;11.30;99.90;;;;;;5053121;28;20520;-44
2022/09/27 05:44:22;;;;;;;16.15;1.30;;;11.30;99.90;;;;;;5047421;28;20210;-46
2022/09/27 05:47:00;;;;;;;11.00;1.42;;;11.40;99.90;;;;;;5042824;28;20189;-47
2022/09/27 05:49:26;;;;;;;10.45;1.20;;;11.40;99.90;;;;;;5033839;28;20242;-50
2022/09/27 05:51:52;;;;;;;7.90;1.23;;;11.40;99.90;;;;;;5016417;28;20666;-44
2022/09/27 05:54:18;;;;;;;14.13;1.48;;;11.40;99.90;;;;;;5032284;28;20302;-45
2022/09/27 05:56:43;;;;;;;5.70;1.30;;;11.30;99.90;;;;;;5048011;28;20187;-41
2022/09/27 05:59:12;;;;;;;7.60;1.50;;;11.30;99.90;;;;;;5043327;28;20203;-42
2022/09/27 06:02:00;;;;;;;9.90;1.60;;;11.30;99.90;;;;;;5043950;28;20737;-43
2022/09/27 06:04:53;;;;;;;6.45;1.30;;;11.30;99.90;;;;;;5032786;28;20192;-45
2022/09/27 06:07:39;;;;;;;11.27;2.38;;;11.30;99.90;;;;;;5043403;28;20194;-48
2022/09/27 06:10:09;;;;;;;7.57;1.30;;;11.30;99.90;;;;;;5044908;28;20215;-45
2022/09/27 06:12:35;;;;;;;6.95;1.80;;;11.30;99.90;;;;;;5050781;28;20183;-48
2022/09/27 06:15:03;;;;;;;8.63;1.50;;;11.40;99.90;;;;;;5023524;28;20270;-41
2022/09/27 06:17:34;;;;;;;8.68;1.70;;;11.40;99.90;;;;;;5046815;28;20249;-44
2022/09/27 06:20:03;;;;;;;8.07;1.50;;;11.40;99.90;;;;;;5041749;28;20187;-44
2022/09/27 06:22:29;;;;;;;10.13;1.65;;;11.50;99.90;;;;;;5046083;28;20183;-44
2022/09/27 06:24:59;;;;;;;14.43;2.00;;;11.50;99.90;;;;;;5002831;28;20291;-41
2022/09/27 06:27:30;;;;;;;24.90;2.30;;;11.50;99.90;;;;;;5032974;28;20274;-41
2022/09/27 06:30:05;;;;;;;12.18;1.50;;;11.60;99.90;;;;;;5043033;28;20214;-43
2022/09/27 06:33:00;;;;;;;12.07;1.45;;;11.60;99.90;;;;;;5037110;28;20200;-45
2022/09/27 06:35:39;;;;;;;9.13;1.42;;;11.60;99.90;;;;;;5030611;28;20179;-41
2022/09/27 06:38:08;;;;;;;15.30;1.60;;;11.60;99.90;;;;;;5044602;28;20191;-42
2022/09/27 06:40:35;;;;;;;12.52;1.73;;;11.50;99.90;;;;;;5023596;28;20517;-44
2022/09/27 06:43:21;;;;;;;7.97;1.42;;;11.50;99.90;;;;;;5031106;28;20183;-43
2022/09/27 06:46:04;;;;;;;7.40;1.38;;;11.50;99.90;;;;;;5033897;28;20554;-50
2022/09/27 06:48:59;;;;;;;10.55;1.20;;;11.60;99.90;;;;;;4973690;28;20655;-45
2022/09/27 06:51:25;;;;;;;13.30;1.60;;;11.50;99.90;;;;;;5033278;28;20180;-43
2022/09/27 06:53:51;;;;;;;15.23;1.75;;;11.50;99.90;;;;;;5033167;28;20585;-47
2022/09/27 06:56:17;;;;;;;13.25;1.52;;;11.50;99.90;;;;;;5016713;28;20179;-47
2022/09/27 07:01:40;;;;;;;9.35;2.10;;;11.60;99.90;;;;;;5043140;28;20210;-46
2022/09/27 07:04:24;;;;;;;10.48;1.50;;;11.60;99.90;;;;;;5045874;28;20246;-45
2022/09/27 07:07:11;;;;;;;13.32;1.75;;;11.60;99.90;;;;;;5008978;28;20233;-48
2022/09/27 07:09:43;;;;;;;14.00;1.67;;;11.60;99.90;;;;;;5022811;28;20218;-45
2022/09/27 07:12:12;;;;;;;8.85;1.42;;;11.70;99.90;;;;;;5037949;28;20187;-44
2022/09/27 07:14:38;;;;;;;15.80;1.85;;;11.70;99.90;;;;;;5039053;28;20183;-48
2022/09/27 07:17:05;;;;;;;15.70;1.83;;;11.70;99.90;;;;;;5034684;28;20182;-47
2022/09/27 07:19:35;;;;;;;22.05;2.63;;;11.70;99.90;;;;;;5039995;28;20547;-49
2022/09/27 07:22:01;;;;;;;7.43;1.65;;;11.70;99.90;;;;;;5035189;28;20178;-48
2022/09/27 07:24:28;;;;;;;6.25;0.88;;;11.70;99.90;;;;;;5037456;28;20203;-45
2022/09/27 07:26:54;;;;;;;9.07;1.23;;;11.70;99.90;;;;;;5054326;28;20547;-47
2022/09/27 07:29:21;;;;;;;8.00;1.50;;;11.60;99.90;;;;;;5025830;28;20242;-47
2022/09/27 07:31:49;;;;;;;5.43;1.20;;;11.50;99.90;;;;;;5043959;28;20221;-48
2022/09/27 07:34:17;;;;;;;8.90;1.38;;;11.50;99.90;;;;;;5038787;28;20187;-46
2022/09/27 07:36:43;;;;;;;6.85;1.58;;;11.40;99.90;;;;;;5054433;28;20187;-51
2022/09/27 07:39:09;;;;;;;5.13;1.17;;;11.30;99.90;;;;;;5037454;28;20316;-48
2022/09/27 07:41:38;;;;;;;8.45;1.45;;;11.30;99.90;;;;;;5034954;28;20187;-48
2022/09/27 07:44:04;;;;;;;7.43;1.70;;;11.30;99.90;;;;;;5058656;28;20261;-46
2022/09/27 07:46:32;;;;;;;11.10;2.08;;;11.30;99.90;;;;;;5045536;28;20199;-49
2022/09/27 07:49:18;;;;;;;12.27;2.80;;;11.20;99.90;;;;;;5040358;28;20234;-48
2022/09/27 07:52:00;;;;;;;10.90;2.30;;;11.30;99.90;;;;;;5053068;28;20592;-47
2022/09/27 07:54:49;;;;;;;10.90;1.90;;;11.20;99.90;;;;;;5035962;28;20293;-45
2022/09/27 07:57:36;;;;;;;11.57;1.77;;;11.30;99.90;;;;;;5053942;28;20194;-48
2022/09/27 08:00:05;;;;;;;12.65;1.77;;;11.30;99.90;;;;;;5037911;28;20187;-48
2022/09/27 08:02:39;;;;;;;13.40;2.03;;;11.30;99.90;;;;;;5054940;28;20226;-50
2022/09/27 08:05:06;;;;;;;16.35;2.10;;;11.30;99.90;;;;;;5040530;28;20183;-46
2022/09/27 08:07:32;;;;;;;15.65;2.40;;;11.30;99.90;;;;;;5032057;28;20194;-51
2022/09/27 08:09:58;;;;;;;7.05;1.70;;;11.30;99.90;;;;;;5018702;28;20204;-51
2022/09/27 08:12:24;;;;;;;12.55;1.75;;;11.20;99.90;;;;;;5049113;28;20186;-51
2022/09/27 08:14:51;;;;;;;8.60;1.90;;;11.20;99.90;;;;;;5030086;28;20188;-49
2022/09/27 08:17:18;;;;;;;11.70;2.40;;;11.30;99.90;;;;;;5048159;28;20215;-47
2022/09/27 08:20:05;;;;;;;7.78;1.83;;;11.20;99.90;;;;;;5038428;28;20206;-47
2022/09/27 08:22:51;;;;;;;9.40;1.80;;;11.20;99.90;;;;;;5033113;28;20330;-56
2022/09/27 08:25:29;;;;;;;10.15;1.90;;;11.30;99.90;;;;;;5036150;28;20184;-48
2022/09/27 08:28:17;;;;;;;9.95;1.83;;;11.20;99.90;;;;;;5034007;28;20195;-45
2022/09/27 08:30:53;;;;;;;12.25;2.08;;;11.20;99.90;;;;;;5020244;28;20191;-45
2022/09/27 08:33:19;;;;;;;11.75;2.25;;;11.20;99.90;;;;;;5036341;28;20191;-46
2022/09/27 08:35:45;;;;;;;6.80;2.08;;;11.20;99.90;;;;;;5034747;28;20223;-51
2022/09/27 08:38:11;;;;;;;11.70;1.80;;;11.20;99.90;;;;;;5055112;28;20218;-46
2022/09/27 08:41:04;;;;;;;7.65;1.55;;;11.30;99.90;;;;;;5035581;28;20199;-48
2022/09/27 08:43:36;;;;;;;17.90;2.25;;;11.30;99.90;;;;;;5040584;28;20183;-47
2022/09/27 08:46:23;;;;;;;8.93;1.85;;;11.30;99.90;;;;;;5031901;28;20172;-51
2022/09/27 08:48:56;;;;;;;9.75;1.35;;;11.20;99.90;;;;;;5037074;28;20203;-46
2022/09/27 08:51:28;;;;;;;7.78;1.42;;;11.10;99.90;;;;;;5036207;28;20184;-48
2022/09/27 08:54:18;;;;;;;8.52;1.50;;;11.00;99.90;;;;;;5052393;28;20232;-48
2022/09/27 08:56:48;;;;;;;13.05;1.95;;;10.90;99.90;;;;;;5049041;28;20233;-52
2022/09/27 08:59:21;;;;;;;13.65;2.00;;;10.80;99.90;;;;;;5035780;28;20228;-46
2022/09/27 09:01:52;;;;;;;13.48;1.50;;;10.70;99.90;;;;;;5035911;28;20274;-51
2022/09/27 09:04:36;;;;;;;11.13;1.45;;;10.60;99.90;;;;;;5053814;28;20549;-50
2022/09/27 09:07:16;;;;;;;9.13;1.30;;;10.50;99.90;;;;;;5033585;28;20281;-54
2022/09/27 09:09:58;;;;;;;9.77;1.27;;;10.50;99.90;;;;;;5035954;28;20307;-53
2022/09/27 09:12:48;;;;;;;13.20;1.73;;;10.40;99.90;;;;;;5035106;28;20187;-50
2022/09/27 09:15:54;;;;;;;10.20;1.50;;;10.40;99.90;;;;;;5052438;28;20238;-48
2022/09/27 09:18:37;;;;;;;12.52;1.63;;;10.40;99.90;;;;;;5038113;28;20542;-48
2022/09/27 09:21:24;;;;;;;10.88;1.50;;;10.40;99.90;;;;;;5033940;28;20182;-47
2022/09/27 09:24:08;;;;;;;11.13;1.40;;;10.40;99.90;;;;;;5017060;28;20237;-47
2022/09/27 09:26:36;;;;;;;15.00;1.60;;;10.50;99.90;;;;;;5040701;28;20274;-47
2022/09/27 09:29:32;;;;;;;9.07;1.67;;;10.60;99.90;;;;;;5044010;28;20212;-49
2022/09/27 09:32:13;;;;;;;14.73;2.17;;;10.60;99.90;;;;;;5030567;28;20175;-47
2022/09/27 09:34:46;;;;;;;9.90;2.00;;;10.70;99.90;;;;;;5052030;28;20370;-50
2022/09/27 09:37:49;;;;;;;10.50;1.73;;;10.80;99.90;;;;;;5052363;28;20183;-50
2022/09/27 09:40:44;;;;;;;7.75;2.42;;;10.90;99.90;;;;;;5020045;28;20246;-51
2022/09/27 09:43:41;;;;;;;8.75;2.08;;;11.00;99.90;;;;;;5015871;28;20222;-48
2022/09/27 09:46:19;;;;;;;8.55;2.30;;;11.10;99.90;;;;;;5017446;28;20180;-51
2022/09/27 09:49:26;;;;;;;16.50;2.30;;;11.10;99.90;;;;;;5042736;28;20706;-49
2022/09/27 09:51:57;;;;;;;11.40;2.65;;;11.10;99.90;;;;;;5031816;28;20215;-48
2022/09/27 09:54:40;;;;;;;13.27;2.10;;;11.10;99.90;;;;;;5032243;28;20265;-49
2022/09/27 09:57:26;;;;;;;16.40;2.38;;;11.10;99.90;;;;;;5027509;28;20182;-50
2022/09/27 09:59:59;;;;;;;13.80;1.92;;;11.10;99.90;;;;;;5040409;28;20193;-51
2022/09/27 10:02:38;;;;;;;10.27;1.98;;;11.10;99.90;;;;;;5047126;28;20227;-47
2022/09/27 10:05:15;;;;;;;14.80;2.25;;;11.20;99.90;;;;;;5018673;28;20189;-50
2022/09/27 10:07:42;;;;;;;11.20;1.77;;;11.20;99.90;;;;;;5049413;28;20191;-55
2022/09/27 10:10:13;;;;;;;9.73;1.75;;;11.20;99.90;;;;;;5024632;28;20210;-47
2022/09/27 10:13:20;;;;;;;19.67;2.08;;;11.20;99.90;;;;;;5053135;28;20659;-48
2022/09/27 10:16:01;;;;;;;18.52;1.90;;;11.20;99.90;;;;;;5035366;28;20190;-50
2022/09/27 10:18:29;;;;;;;13.55;2.10;;;11.30;99.90;;;;;;5052749;28;20177;-50
2022/09/27 10:21:00;;;;;;;10.32;2.30;;;11.30;99.90;;;;;;5028527;28;20198;-49
2022/09/27 10:23:26;;;;;;;11.52;2.42;;;11.30;99.90;;;;;;5052387;28;20194;-53
2022/09/27 10:26:20;;;;;;;9.70;1.70;;;11.40;99.90;;;;;;5033602;28;20270;-50
2022/09/27 10:28:50;;;;;;;13.18;1.90;;;11.50;99.90;;;;;;5051164;28;20187;-48
2022/09/27 10:31:21;;;;;;;14.40;1.60;;;11.50;99.90;;;;;;5028200;28;20183;-47
2022/09/27 10:34:19;;;;;;;11.95;2.25;;;11.50;99.90;;;;;;5026434;28;20180;-51
2022/09/27 10:37:03;;;;;;;13.40;2.28;;;11.50;99.90;;;;;;5027367;28;20184;-53
2022/09/27 10:39:30;;;;;;;8.52;1.98;;;11.50;99.90;;;;;;5015540;28;20266;-49
2022/09/27 10:41:57;;;;;;;5.72;1.35;;;11.50;99.90;;;;;;5025433;28;20186;-48
2022/09/27 10:44:35;;;;;;;9.80;1.77;;;11.60;99.90;;;;;;5059289;28;20511;-51
2022/09/27 10:47:21;;;;;;;5.70;1.75;;;11.60;99.90;;;;;;5014936;28;20198;-49
2022/09/27 10:50:24;;;;;;;11.65;2.20;;;11.60;99.90;;;;;;5033318;28;20215;-46
2022/09/27 10:53:15;;;;;;;13.68;1.75;;;11.60;99.90;;;;;;5033676;28;20194;-54
2022/09/27 10:55:47;;;;;;;11.82;1.88;;;11.70;99.90;;;;;;5027464;28;20174;-49
2022/09/27 10:58:32;;;;;;;11.32;1.92;;;11.70;99.90;;;;;;5034218;28;20183;-47
2022/09/27 11:01:11;;;;;;;8.48;1.85;;;11.70;99.90;;;;;;5032755;28;20264;-47
2022/09/27 11:04:03;;;;;;;12.48;2.10;;;11.70;99.90;;;;;;5049584;28;20626;-47
2022/09/27 11:06:36;;;;;;;8.27;1.65;;;11.70;99.90;;;;;;5049526;28;20191;-45
2022/09/27 11:09:25;;;;;;;8.90;1.80;;;11.70;99.90;;;;;;5033849;28;20643;-49
2022/09/27 11:12:09;;;;;;;10.90;2.10;;;11.70;99.90;;;;;;5033250;28;20627;-45
2022/09/27 11:14:36;;;;;;;10.32;2.55;;;11.70;99.90;;;;;;5051444;28;20179;-44
2022/09/27 11:17:09;;;;;;;7.75;1.60;;;11.80;99.90;;;;;;5029799;28;20194;-49
2022/09/27 11:20:04;;;;;;;8.05;2.05;;;11.80;99.90;;;;;;5047732;28;20546;-47
2022/09/27 11:22:55;;;;;;;14.68;2.30;;;11.80;99.90;;;;;;5049726;28;20187;-47
2022/09/27 11:25:56;;;;;;;9.32;1.95;;;11.80;99.90;;;;;;5030985;28;20225;-50
2022/09/27 11:28:30;;;;;;;10.55;1.70;;;11.80;99.90;;;;;;5016420;28;20188;-47
2022/09/27 11:31:21;;;;;;;6.18;1.80;;;11.90;99.90;;;;;;5019910;28;20191;-47
2022/09/27 11:34:23;;;;;;;7.35;2.03;;;11.80;99.90;;;;;;5050434;28;20255;-47
2022/09/27 11:37:16;;;;;;;13.70;1.70;;;11.80;99.90;;;;;;4996967;28;20191;-46
2022/09/27 11:40:08;;;;;;;8.18;1.60;;;11.70;99.90;;;;;;5024892;28;20668;-48
2022/09/27 11:42:45;;;;;;;6.50;1.88;;;11.70;99.90;;;;;;5033897;28;20197;-48
2022/09/27 11:45:17;;;;;;;10.10;1.67;;;11.60;99.90;;;;;;5032842;28;20538;-51
2022/09/27 11:48:02;;;;;;;6.55;2.03;;;11.50;99.90;;;;;;5048394;28;20179;-48
2022/09/27 11:51:04;;;;;;;15.10;2.05;;;11.40;99.90;;;;;;5038374;28;20211;-51
2022/09/27 11:53:49;;;;;;;34.00;2.08;;;11.20;99.90;;;;;;5038133;28;20209;-48
2022/09/27 11:56:27;;;;;;;12.02;1.60;;;10.90;99.90;;;;;;5035142;28;20217;-52
2022/09/27 11:59:04;;;;;;;3.92;1.40;;;10.40;99.90;;;;;;5039168;28;20266;-51
2022/09/27 12:01:52;;;;;;;15.38;3.85;;;10.10;99.90;;;;;;5050411;28;20201;-52
2022/09/27 12:04:41;;;;;;;7.40;2.70;;;9.90;99.90;;;;;;5035579;28;20635;-56
2022/09/27 12:07:14;;;;;;;9.23;2.20;;;9.90;99.90;;;;;;5047509;28;20270;-54
2022/09/27 12:09:49;;;;;;;8.07;1.92;;;10.00;99.90;;;;;;5038346;28;20209;-54
2022/09/27 12:12:20;;;;;;;9.90;2.28;;;10.00;99.90;;;;;;5018257;28;20198;-50
2022/09/27 12:14:55;;;;;;;8.52;2.20;;;10.10;99.90;;;;;;5046777;28;20183;-52
2022/09/27 12:17:30;;;;;;;7.28;2.13;;;10.00;99.90;;;;;;5033852;28;20654;-57
2022/09/27 12:20:02;;;;;;;7.55;1.80;;;10.10;99.90;;;;;;5037458;28;20193;-52
2022/09/27 12:22:52;;;;;;;18.10;2.15;;;10.20;99.90;;;;;;5033786;28;20211;-53
2022/09/27 12:25:25;;;;;;;10.73;2.13;;;10.30;99.90;;;;;;5020416;28;20695;-50
2022/09/27 12:28:16;;;;;;;17.48;2.40;;;10.40;99.90;;;;;;5034726;28;20579;-52
2022/09/27 12:30:47;;;;;;;7.35;2.75;;;10.50;99.90;;;;;;5034686;28;20226;-51
2022/09/27 12:33:31;;;;;;;8.80;3.00;;;10.50;99.90;;;;;;5025366;28;20306;-49
2022/09/27 12:36:05;;;;;;;10.00;3.20;;;10.50;99.90;;;;;;5051270;28;20186;-50
2022/09/27 12:38:45;;;;;;;12.10;3.65;;;10.60;99.90;;;;;;5051542;28;20182;-49
2022/09/27 12:41:16;;;;;;;7.80;3.00;;;10.70;99.90;;;;;;5053361;28;20583;-51
2022/09/27 12:43:58;;;;;;;11.43;3.28;;;10.80;99.90;;;;;;5052066;28;20179;-53
2022/09/27 12:47:02;;;;;;;8.02;2.58;;;10.90;99.90;;;;;;5052136;28;20291;-54
2022/09/27 12:49:34;;;;;;;12.30;2.60;;;10.90;99.90;;;;;;5047081;28;20249;-52
2022/09/27 12:52:06;;;;;;;7.63;2.28;;;10.90;99.90;;;;;;5033238;28;20195;-49
2022/09/27 12:55:10;;;;;;;9.88;2.55;;;10.90;99.90;;;;;;5053466;28;20242;-46
2022/09/27 12:57:38;;;;;;;10.15;2.45;;;11.00;99.90;;;;;;5052882;28;20183;-50
2022/09/27 13:00:22;;;;;;;7.55;2.97;;;11.10;99.90;;;;;;5019947;28;20218;-52
2022/09/27 13:03:13;;;;;;;14.85;2.97;;;11.20;99.90;;;;;;5034286;28;20591;-52
2022/09/27 13:06:10;;;;;;;9.48;2.50;;;11.40;99.90;;;;;;5036353;28;20183;-52
2022/09/27 13:08:51;;;;;;;13.07;2.83;;;11.70;99.90;;;;;;5017277;28;20504;-52
2022/09/27 13:11:55;;;;;;;10.82;2.95;;;12.00;99.90;;;;;;5037802;28;20190;-50
2022/09/27 13:14:27;;;;;;;8.23;2.30;;;12.20;99.90;;;;;;5033593;28;20270;-48
2022/09/27 13:16:53;;;;;;;10.63;2.50;;;12.40;99.90;;;;;;5015439;28;20212;-46
2022/09/27 13:19:41;;;;;;;5.32;1.95;;;12.50;99.90;;;;;;5053353;28;20183;-47
2022/09/27 13:22:27;;;;;;;5.15;1.60;;;12.50;99.90;;;;;;5047400;28;20186;-49
2022/09/27 13:26:03;;;;;;;9.35;1.60;;;12.40;99.90;;;;;;5014061;28;20188;-57
2022/09/27 13:28:49;;;;;;;7.82;2.25;;;12.40;99.90;;;;;;4988433;28;20196;-52
2022/09/27 13:31:53;;;;;;;11.35;2.00;;;12.40;99.90;;;;;;5039663;28;20183;-50
2022/09/27 13:34:41;;;;;;;6.88;1.50;;;12.40;99.90;;;;;;5035242;28;20172;-51
2022/09/27 13:37:43;;;;;;;9.27;1.77;;;12.50;99.90;;;;;;5032006;28;20233;-50
2022/09/27 13:40:36;;;;;;;10.38;1.88;;;12.50;99.90;;;;;;5036202;28;20186;-49